sensor_id;sensor_type;location;lat;lon;timestamp;temperature;humidity
68026;SHT31;54819;48.030;14.710;2022-12-16T00:01:21;0.10;90.77
68026;SHT31;54819;48.030;14.710;2022-12-16T00:03:50;0.09;90.83
68026;SHT31;54819;48.030;14.710;2022-12-16T00:06:21;0.06;90.81
68026;SHT31;54819;48.030;14.710;2022-12-16T00:08:49;0.04;90.93
68026;SHT31;54819;48.030;14.710;2022-12-16T00:11:17;0.05;90.83
68026;SHT31;54819;48.030;14.710;2022-12-16T00:13:45;0.04;90.63
68026;SHT31;54819;48.030;14.710;2022-12-16T00:16:13;0.03;90.84
68026;SHT31;54819;48.030;14.710;2022-12-16T00:18:42;0.03;90.83
68026;SHT31;54819;48.030;14.710;2022-12-16T00:21:09;0.02;90.79
68026;SHT31;54819;48.030;14.710;2022-12-16T00:23:36;0.02;90.77
68026;SHT31;54819;48.030;14.710;2022-12-16T00:26:07;-0.02;91.02
68026;SHT31;54819;48.030;14.710;2022-12-16T00:28:34;-0.04;91.21
68026;SHT31;54819;48.030;14.710;2022-12-16T00:31:01;-0.04;91.30
68026;SHT31;54819;48.030;14.710;2022-12-16T00:33:29;-0.05;91.29
68026;SHT31;54819;48.030;14.710;2022-12-16T00:35:56;-0.05;91.50
68026;SHT31;54819;48.030;14.710;2022-12-16T00:38:24;-0.05;91.52
68026;SHT31;54819;48.030;14.710;2022-12-16T00:40:51;-0.02;91.55
68026;SHT31;54819;48.030;14.710;2022-12-16T00:43:18;-0.01;91.50
68026;SHT31;54819;48.030;14.710;2022-12-16T00:45:46;0.00;91.47
68026;SHT31;54819;48.030;14.710;2022-12-16T00:48:13;0.00;91.42
68026;SHT31;54819;48.030;14.710;2022-12-16T00:50:43;-0.04;91.57
68026;SHT31;54819;48.030;14.710;2022-12-16T00:53:14;-0.07;91.69
68026;SHT31;54819;48.030;14.710;2022-12-16T00:55:42;-0.08;91.83
68026;SHT31;54819;48.030;14.710;2022-12-16T00:58:09;-0.06;91.81
68026;SHT31;54819;48.030;14.710;2022-12-16T01:00:36;-0.04;91.79
68026;SHT31;54819;48.030;14.710;2022-12-16T01:03:03;-0.06;91.81
68026;SHT31;54819;48.030;14.710;2022-12-16T01:05:30;-0.05;91.90
68026;SHT31;54819;48.030;14.710;2022-12-16T01:07:57;-0.02;91.84
68026;SHT31;54819;48.030;14.710;2022-12-16T01:10:24;-0.01;91.73
68026;SHT31;54819;48.030;14.710;2022-12-16T01:12:51;-0.01;91.76
68026;SHT31;54819;48.030;14.710;2022-12-16T01:15:18;-0.01;91.70
68026;SHT31;54819;48.030;14.710;2022-12-16T01:17:45;-0.05;91.88
68026;SHT31;54819;48.030;14.710;2022-12-16T01:20:12;-0.02;91.77
68026;SHT31;54819;48.030;14.710;2022-12-16T01:22:39;-0.01;91.78
68026;SHT31;54819;48.030;14.710;2022-12-16T01:25:06;-0.02;91.69
68026;SHT31;54819;48.030;14.710;2022-12-16T01:27:35;-0.03;91.85
68026;SHT31;54819;48.030;14.710;2022-12-16T01:30:01;-0.00;91.67
68026;SHT31;54819;48.030;14.710;2022-12-16T01:32:28;0.00;91.71
68026;SHT31;54819;48.030;14.710;2022-12-16T01:34:55;0.00;91.55
68026;SHT31;54819;48.030;14.710;2022-12-16T01:37:22;-0.04;91.72
68026;SHT31;54819;48.030;14.710;2022-12-16T01:39:49;-0.08;91.88
68026;SHT31;54819;48.030;14.710;2022-12-16T01:42:21;-0.07;91.95
68026;SHT31;54819;48.030;14.710;2022-12-16T01:44:48;-0.08;91.92
68026;SHT31;54819;48.030;14.710;2022-12-16T01:47:27;-0.07;91.98
68026;SHT31;54819;48.030;14.710;2022-12-16T01:50:02;-0.04;91.83
68026;SHT31;54819;48.030;14.710;2022-12-16T01:52:33;-0.05;91.95
68026;SHT31;54819;48.030;14.710;2022-12-16T01:55:07;-0.05;91.92
68026;SHT31;54819;48.030;14.710;2022-12-16T01:57:58;-0.04;92.06
68026;SHT31;54819;48.030;14.710;2022-12-16T02:00:30;0.03;91.79
68026;SHT31;54819;48.030;14.710;2022-12-16T02:02:56;0.01;91.73
68026;SHT31;54819;48.030;14.710;2022-12-16T02:05:24;0.05;91.83
68026;SHT31;54819;48.030;14.710;2022-12-16T02:16:04;0.08;91.55
68026;SHT31;54819;48.030;14.710;2022-12-16T02:19:01;0.07;91.63
68026;SHT31;54819;48.030;14.710;2022-12-16T02:38:33;0.28;91.04
68026;SHT31;54819;48.030;14.710;2022-12-16T02:41:04;0.28;90.97
68026;SHT31;54819;48.030;14.710;2022-12-16T02:43:52;0.29;91.04
68026;SHT31;54819;48.030;14.710;2022-12-16T02:46:25;0.26;90.95
68026;SHT31;54819;48.030;14.710;2022-12-16T02:48:53;0.24;91.07
68026;SHT31;54819;48.030;14.710;2022-12-16T02:51:21;0.25;91.17
68026;SHT31;54819;48.030;14.710;2022-12-16T02:53:51;0.27;91.05
68026;SHT31;54819;48.030;14.710;2022-12-16T02:59:37;0.26;91.33
68026;SHT31;54819;48.030;14.710;2022-12-16T03:07:04;0.38;90.91
68026;SHT31;54819;48.030;14.710;2022-12-16T03:09:37;0.41;90.97
68026;SHT31;54819;48.030;14.710;2022-12-16T03:12:09;0.44;91.04
68026;SHT31;54819;48.030;14.710;2022-12-16T03:14:39;0.49;90.94
68026;SHT31;54819;48.030;14.710;2022-12-16T03:17:08;0.50;90.95
68026;SHT31;54819;48.030;14.710;2022-12-16T03:19:37;0.51;91.04
68026;SHT31;54819;48.030;14.710;2022-12-16T03:22:15;0.56;91.12
68026;SHT31;54819;48.030;14.710;2022-12-16T03:24:46;0.62;91.05
68026;SHT31;54819;48.030;14.710;2022-12-16T03:27:15;0.69;90.48
68026;SHT31;54819;48.030;14.710;2022-12-16T03:35:58;0.61;90.62
68026;SHT31;54819;48.030;14.710;2022-12-16T03:38:02;0.58;90.65
68026;SHT31;54819;48.030;14.710;2022-12-16T03:40:30;0.54;90.77
68026;SHT31;54819;48.030;14.710;2022-12-16T03:42:59;0.51;90.91
68026;SHT31;54819;48.030;14.710;2022-12-16T03:45:31;0.54;90.95
68026;SHT31;54819;48.030;14.710;2022-12-16T03:48:02;0.55;90.74
68026;SHT31;54819;48.030;14.710;2022-12-16T03:50:33;0.54;90.77
68026;SHT31;54819;48.030;14.710;2022-12-16T03:53:01;0.52;90.82
68026;SHT31;54819;48.030;14.710;2022-12-16T03:55:28;0.54;90.83
68026;SHT31;54819;48.030;14.710;2022-12-16T03:57:55;0.55;90.90
68026;SHT31;54819;48.030;14.710;2022-12-16T04:00:23;0.58;90.92
68026;SHT31;54819;48.030;14.710;2022-12-16T04:02:50;0.58;91.08
68026;SHT31;54819;48.030;14.710;2022-12-16T04:05:18;0.60;91.09
68026;SHT31;54819;48.030;14.710;2022-12-16T04:07:45;0.61;91.08
68026;SHT31;54819;48.030;14.710;2022-12-16T04:10:11;0.64;91.09
68026;SHT31;54819;48.030;14.710;2022-12-16T04:12:38;0.64;91.18
68026;SHT31;54819;48.030;14.710;2022-12-16T04:15:24;0.64;91.19
68026;SHT31;54819;48.030;14.710;2022-12-16T04:18:14;0.69;91.11
68026;SHT31;54819;48.030;14.710;2022-12-16T04:21:02;0.75;91.09
68026;SHT31;54819;48.030;14.710;2022-12-16T04:23:50;0.80;91.00
68026;SHT31;54819;48.030;14.710;2022-12-16T04:26:39;0.80;90.90
68026;SHT31;54819;48.030;14.710;2022-12-16T04:29:25;0.86;90.80
68026;SHT31;54819;48.030;14.710;2022-12-16T04:31:51;0.93;90.76
68026;SHT31;54819;48.030;14.710;2022-12-16T04:34:19;1.00;90.70
68026;SHT31;54819;48.030;14.710;2022-12-16T04:36:53;1.06;90.49
68026;SHT31;54819;48.030;14.710;2022-12-16T04:39:39;1.11;90.30
68026;SHT31;54819;48.030;14.710;2022-12-16T04:42:24;1.19;90.41
68026;SHT31;54819;48.030;14.710;2022-12-16T04:45:09;1.25;90.44
68026;SHT31;54819;48.030;14.710;2022-12-16T04:47:55;1.32;90.42
68026;SHT31;54819;48.030;14.710;2022-12-16T04:50:41;1.35;89.86
68026;SHT31;54819;48.030;14.710;2022-12-16T04:53:26;1.38;89.81
68026;SHT31;54819;48.030;14.710;2022-12-16T04:56:12;1.43;89.91
68026;SHT31;54819;48.030;14.710;2022-12-16T04:58:58;1.44;89.78
68026;SHT31;54819;48.030;14.710;2022-12-16T05:01:51;1.42;89.65
68026;SHT31;54819;48.030;14.710;2022-12-16T05:04:36;1.42;89.41
68026;SHT31;54819;48.030;14.710;2022-12-16T05:07:22;1.36;89.17
68026;SHT31;54819;48.030;14.710;2022-12-16T05:10:07;1.30;89.22
68026;SHT31;54819;48.030;14.710;2022-12-16T05:12:53;1.22;89.15
68026;SHT31;54819;48.030;14.710;2022-12-16T05:15:39;1.15;89.30
68026;SHT31;54819;48.030;14.710;2022-12-16T05:18:44;1.15;89.63
68026;SHT31;54819;48.030;14.710;2022-12-16T05:21:30;1.15;89.76
68026;SHT31;54819;48.030;14.710;2022-12-16T05:24:16;1.15;89.82
68026;SHT31;54819;48.030;14.710;2022-12-16T05:27:01;1.15;89.87
68026;SHT31;54819;48.030;14.710;2022-12-16T05:29:47;1.14;89.90
68026;SHT31;54819;48.030;14.710;2022-12-16T05:32:32;1.13;89.90
68026;SHT31;54819;48.030;14.710;2022-12-16T05:35:17;1.09;89.93
68026;SHT31;54819;48.030;14.710;2022-12-16T05:38:03;1.10;90.00
68026;SHT31;54819;48.030;14.710;2022-12-16T05:40:48;1.10;90.00
68026;SHT31;54819;48.030;14.710;2022-12-16T05:43:34;1.10;90.00
68026;SHT31;54819;48.030;14.710;2022-12-16T05:46:20;1.10;90.01
68026;SHT31;54819;48.030;14.710;2022-12-16T05:49:05;1.11;90.06
68026;SHT31;54819;48.030;14.710;2022-12-16T05:51:51;1.10;90.08
68026;SHT31;54819;48.030;14.710;2022-12-16T05:54:36;1.11;90.09
68026;SHT31;54819;48.030;14.710;2022-12-16T05:57:32;1.11;90.10
68026;SHT31;54819;48.030;14.710;2022-12-16T06:00:17;1.11;90.10
68026;SHT31;54819;48.030;14.710;2022-12-16T06:03:02;1.12;90.10
68026;SHT31;54819;48.030;14.710;2022-12-16T06:05:48;1.10;90.11
68026;SHT31;54819;48.030;14.710;2022-12-16T06:08:33;1.09;90.10
68026;SHT31;54819;48.030;14.710;2022-12-16T06:11:19;1.09;90.14
68026;SHT31;54819;48.030;14.710;2022-12-16T06:14:04;1.10;90.19
68026;SHT31;54819;48.030;14.710;2022-12-16T06:16:50;1.11;90.16
68026;SHT31;54819;48.030;14.710;2022-12-16T06:19:35;1.11;90.15
68026;SHT31;54819;48.030;14.710;2022-12-16T06:22:21;1.11;90.11
68026;SHT31;54819;48.030;14.710;2022-12-16T06:25:06;1.12;90.09
68026;SHT31;54819;48.030;14.710;2022-12-16T06:27:52;1.15;90.00
68026;SHT31;54819;48.030;14.710;2022-12-16T06:30:37;1.20;90.00
68026;SHT31;54819;48.030;14.710;2022-12-16T06:33:23;1.23;89.97
68026;SHT31;54819;48.030;14.710;2022-12-16T06:36:08;1.28;89.92
68026;SHT31;54819;48.030;14.710;2022-12-16T06:38:54;1.32;89.86
68026;SHT31;54819;48.030;14.710;2022-12-16T06:41:39;1.38;89.91
68026;SHT31;54819;48.030;14.710;2022-12-16T06:44:25;1.43;89.80
68026;SHT31;54819;48.030;14.710;2022-12-16T06:47:10;1.47;89.59
68026;SHT31;54819;48.030;14.710;2022-12-16T06:49:55;1.53;89.68
68026;SHT31;54819;48.030;14.710;2022-12-16T06:52:43;1.58;89.63
68026;SHT31;54819;48.030;14.710;2022-12-16T06:55:29;1.61;89.55
68026;SHT31;54819;48.030;14.710;2022-12-16T06:58:14;1.61;89.08
68026;SHT31;54819;48.030;14.710;2022-12-16T07:01:00;1.68;89.36
68026;SHT31;54819;48.030;14.710;2022-12-16T07:03:56;1.74;89.41
68026;SHT31;54819;48.030;14.710;2022-12-16T07:06:42;1.78;89.35
68026;SHT31;54819;48.030;14.710;2022-12-16T07:09:27;1.81;89.29
68026;SHT31;54819;48.030;14.710;2022-12-16T07:12:12;1.81;89.19
68026;SHT31;54819;48.030;14.710;2022-12-16T07:14:58;1.78;88.86
68026;SHT31;54819;48.030;14.710;2022-12-16T07:17:44;1.77;88.96
68026;SHT31;54819;48.030;14.710;2022-12-16T07:20:29;1.75;89.00
68026;SHT31;54819;48.030;14.710;2022-12-16T07:23:16;1.74;88.97
68026;SHT31;54819;48.030;14.710;2022-12-16T07:26:01;1.72;89.01
68026;SHT31;54819;48.030;14.710;2022-12-16T07:28:47;1.72;89.01
68026;SHT31;54819;48.030;14.710;2022-12-16T07:31:32;1.71;89.02
68026;SHT31;54819;48.030;14.710;2022-12-16T07:34:18;1.70;88.96
68026;SHT31;54819;48.030;14.710;2022-12-16T07:37:09;1.68;88.92
68026;SHT31;54819;48.030;14.710;2022-12-16T07:39:54;1.67;88.99
68026;SHT31;54819;48.030;14.710;2022-12-16T07:42:40;1.63;88.98
68026;SHT31;54819;48.030;14.710;2022-12-16T07:45:26;1.60;88.96
68026;SHT31;54819;48.030;14.710;2022-12-16T07:48:11;1.58;88.99
68026;SHT31;54819;48.030;14.710;2022-12-16T07:50:57;1.54;88.92
68026;SHT31;54819;48.030;14.710;2022-12-16T07:53:42;1.52;88.96
68026;SHT31;54819;48.030;14.710;2022-12-16T07:56:27;1.49;88.96
68026;SHT31;54819;48.030;14.710;2022-12-16T07:59:13;1.46;88.95
68026;SHT31;54819;48.030;14.710;2022-12-16T08:01:58;1.45;89.00
68026;SHT31;54819;48.030;14.710;2022-12-16T08:04:44;1.45;89.00
68026;SHT31;54819;48.030;14.710;2022-12-16T08:07:29;1.47;89.01
68026;SHT31;54819;48.030;14.710;2022-12-16T08:10:15;1.54;89.11
68026;SHT31;54819;48.030;14.710;2022-12-16T08:13:01;1.63;89.10
68026;SHT31;54819;48.030;14.710;2022-12-16T08:15:51;1.71;89.02
68026;SHT31;54819;48.030;14.710;2022-12-16T08:18:37;1.80;89.01
68026;SHT31;54819;48.030;14.710;2022-12-16T08:21:22;1.86;88.91
68026;SHT31;54819;48.030;14.710;2022-12-16T08:24:08;1.95;88.81
68026;SHT31;54819;48.030;14.710;2022-12-16T08:26:53;2.04;88.80
68026;SHT31;54819;48.030;14.710;2022-12-16T08:29:39;2.13;88.66
68026;SHT31;54819;48.030;14.710;2022-12-16T08:32:24;2.19;88.55
68026;SHT31;54819;48.030;14.710;2022-12-16T08:35:09;2.25;88.53
68026;SHT31;54819;48.030;14.710;2022-12-16T08:37:55;2.30;88.52
68026;SHT31;54819;48.030;14.710;2022-12-16T08:40:41;2.33;88.43
68026;SHT31;54819;48.030;14.710;2022-12-16T08:43:31;2.35;88.38
68026;SHT31;54819;48.030;14.710;2022-12-16T08:46:20;2.34;88.17
68026;SHT31;54819;48.030;14.710;2022-12-16T08:49:05;2.35;88.07
68026;SHT31;54819;48.030;14.710;2022-12-16T08:51:51;2.34;87.96
68026;SHT31;54819;48.030;14.710;2022-12-16T08:54:36;2.31;87.86
68026;SHT31;54819;48.030;14.710;2022-12-16T08:57:22;2.23;87.44
68026;SHT31;54819;48.030;14.710;2022-12-16T09:00:08;2.23;87.79
68026;SHT31;54819;48.030;14.710;2022-12-16T09:02:54;2.21;87.89
68026;SHT31;54819;48.030;14.710;2022-12-16T09:05:43;2.15;87.53
68026;SHT31;54819;48.030;14.710;2022-12-16T09:08:29;2.11;87.51
68026;SHT31;54819;48.030;14.710;2022-12-16T09:11:15;2.10;87.78
68026;SHT31;54819;48.030;14.710;2022-12-16T09:14:01;2.11;87.81
68026;SHT31;54819;48.030;14.710;2022-12-16T09:16:47;2.09;87.67
68026;SHT31;54819;48.030;14.710;2022-12-16T09:19:32;2.06;87.63
68026;SHT31;54819;48.030;14.710;2022-12-16T09:22:20;2.06;87.61
68026;SHT31;54819;48.030;14.710;2022-12-16T09:25:06;2.06;87.68
68026;SHT31;54819;48.030;14.710;2022-12-16T09:27:51;2.09;87.63
68026;SHT31;54819;48.030;14.710;2022-12-16T09:30:38;2.10;87.51
68026;SHT31;54819;48.030;14.710;2022-12-16T09:33:23;2.09;87.26
68026;SHT31;54819;48.030;14.710;2022-12-16T09:36:09;2.15;87.37
68026;SHT31;54819;48.030;14.710;2022-12-16T09:38:54;2.22;87.27
68026;SHT31;54819;48.030;14.710;2022-12-16T09:41:44;2.31;87.08
68026;SHT31;54819;48.030;14.710;2022-12-16T09:48:10;2.60;86.95
68026;SHT31;54819;48.030;14.710;2022-12-16T09:51:01;2.74;86.70
68026;SHT31;54819;48.030;14.710;2022-12-16T09:53:50;2.85;86.41
68026;SHT31;54819;48.030;14.710;2022-12-16T09:56:37;2.99;86.40
68026;SHT31;54819;48.030;14.710;2022-12-16T09:59:44;3.11;86.07
68026;SHT31;54819;48.030;14.710;2022-12-16T10:02:30;3.13;85.70
68026;SHT31;54819;48.030;14.710;2022-12-16T10:05:19;3.13;85.70
68026;SHT31;54819;48.030;14.710;2022-12-16T10:08:17;3.13;85.85
68026;SHT31;54819;48.030;14.710;2022-12-16T10:11:13;3.11;85.90
68026;SHT31;54819;48.030;14.710;2022-12-16T10:14:11;3.04;85.29
68026;SHT31;54819;48.030;14.710;2022-12-16T10:17:04;3.01;85.08
68026;SHT31;54819;48.030;14.710;2022-12-16T10:20:06;3.02;85.57
68026;SHT31;54819;48.030;14.710;2022-12-16T10:23:10;3.02;85.58
68026;SHT31;54819;48.030;14.710;2022-12-16T10:26:10;2.98;85.47
68026;SHT31;54819;48.030;14.710;2022-12-16T10:32:34;3.04;85.16
68026;SHT31;54819;48.030;14.710;2022-12-16T10:35:22;3.11;85.44
68026;SHT31;54819;48.030;14.710;2022-12-16T10:38:21;3.12;85.56
68026;SHT31;54819;48.030;14.710;2022-12-16T10:41:13;3.07;85.52
68026;SHT31;54819;48.030;14.710;2022-12-16T10:43:59;3.01;85.46
68026;SHT31;54819;48.030;14.710;2022-12-16T10:46:47;2.96;85.50
68026;SHT31;54819;48.030;14.710;2022-12-16T10:49:33;2.90;85.50
68026;SHT31;54819;48.030;14.710;2022-12-16T10:52:20;2.84;85.46
68026;SHT31;54819;48.030;14.710;2022-12-16T10:55:29;2.76;84.98
68026;SHT31;54819;48.030;14.710;2022-12-16T10:58:35;2.81;85.51
68026;SHT31;54819;48.030;14.710;2022-12-16T11:01:41;2.90;85.57
68026;SHT31;54819;48.030;14.710;2022-12-16T11:04:44;2.99;85.52
68026;SHT31;54819;48.030;14.710;2022-12-16T11:13:27;3.33;85.18
68026;SHT31;54819;48.030;14.710;2022-12-16T11:19:23;3.49;84.34
68026;SHT31;54819;48.030;14.710;2022-12-16T11:22:19;3.62;84.54
68026;SHT31;54819;48.030;14.710;2022-12-16T11:25:16;3.70;83.91
68026;SHT31;54819;48.030;14.710;2022-12-16T11:28:04;3.74;83.33
68026;SHT31;54819;48.030;14.710;2022-12-16T11:30:51;3.74;82.89
68026;SHT31;54819;48.030;14.710;2022-12-16T11:33:39;3.73;83.21
68026;SHT31;54819;48.030;14.710;2022-12-16T11:36:27;3.72;83.50
68026;SHT31;54819;48.030;14.710;2022-12-16T11:39:18;3.70;82.85
68026;SHT31;54819;48.030;14.710;2022-12-16T11:42:06;3.79;83.21
68026;SHT31;54819;48.030;14.710;2022-12-16T11:45:00;3.89;82.80
68026;SHT31;54819;48.030;14.710;2022-12-16T11:47:53;3.95;81.87
68026;SHT31;54819;48.030;14.710;2022-12-16T11:50:41;3.97;81.94
68026;SHT31;54819;48.030;14.710;2022-12-16T11:53:44;3.93;82.08
68026;SHT31;54819;48.030;14.710;2022-12-16T11:56:32;3.96;82.42
68026;SHT31;54819;48.030;14.710;2022-12-16T11:59:27;4.02;82.73
68026;SHT31;54819;48.030;14.710;2022-12-16T12:05:31;3.95;81.71
68026;SHT31;54819;48.030;14.710;2022-12-16T12:11:30;3.88;81.82
68026;SHT31;54819;48.030;14.710;2022-12-16T12:14:32;3.88;81.84
68026;SHT31;54819;48.030;14.710;2022-12-16T12:23:10;3.78;82.13
68026;SHT31;54819;48.030;14.710;2022-12-16T12:26:13;3.71;81.96
68026;SHT31;54819;48.030;14.710;2022-12-16T12:29:08;3.67;82.15
68026;SHT31;54819;48.030;14.710;2022-12-16T12:47:46;3.55;81.08
68026;SHT31;54819;48.030;14.710;2022-12-16T12:50:48;3.61;81.48
68026;SHT31;54819;48.030;14.710;2022-12-16T12:53:48;3.66;79.83
68026;SHT31;54819;48.030;14.710;2022-12-16T12:56:46;3.75;80.12
68026;SHT31;54819;48.030;14.710;2022-12-16T12:59:41;3.86;80.85
68026;SHT31;54819;48.030;14.710;2022-12-16T13:05:36;4.12;81.14
68026;SHT31;54819;48.030;14.710;2022-12-16T13:08:30;4.11;80.93
68026;SHT31;54819;48.030;14.710;2022-12-16T13:11:18;4.15;81.21
68026;SHT31;54819;48.030;14.710;2022-12-16T13:17:17;4.16;80.07
68026;SHT31;54819;48.030;14.710;2022-12-16T13:20:31;4.14;80.30
68026;SHT31;54819;48.030;14.710;2022-12-16T13:23:33;4.16;80.96
68026;SHT31;54819;48.030;14.710;2022-12-16T13:26:21;4.09;80.27
68026;SHT31;54819;48.030;14.710;2022-12-16T13:35:05;4.03;80.92
68026;SHT31;54819;48.030;14.710;2022-12-16T13:38:01;3.89;80.92
68026;SHT31;54819;48.030;14.710;2022-12-16T13:41:04;3.67;80.28
68026;SHT31;54819;48.030;14.710;2022-12-16T13:44:10;3.58;81.48
68026;SHT31;54819;48.030;14.710;2022-12-16T13:46:57;3.57;81.79
68026;SHT31;54819;48.030;14.710;2022-12-16T13:49:44;3.53;81.94
68026;SHT31;54819;48.030;14.710;2022-12-16T13:52:47;3.49;82.05
68026;SHT31;54819;48.030;14.710;2022-12-16T13:55:47;3.40;82.22
68026;SHT31;54819;48.030;14.710;2022-12-16T13:58:42;3.34;82.36
68026;SHT31;54819;48.030;14.710;2022-12-16T14:01:48;3.27;82.46
68026;SHT31;54819;48.030;14.710;2022-12-16T14:04:49;3.17;82.56
68026;SHT31;54819;48.030;14.710;2022-12-16T14:07:37;3.06;82.85
68026;SHT31;54819;48.030;14.710;2022-12-16T14:10:32;3.01;83.06
68026;SHT31;54819;48.030;14.710;2022-12-16T14:23:03;2.88;83.58
68026;SHT31;54819;48.030;14.710;2022-12-16T14:26:24;2.86;83.74
68026;SHT31;54819;48.030;14.710;2022-12-16T14:29:30;2.85;83.81
68026;SHT31;54819;48.030;14.710;2022-12-16T14:32:23;2.82;83.92
68026;SHT31;54819;48.030;14.710;2022-12-16T14:35:14;2.80;84.00
68026;SHT31;54819;48.030;14.710;2022-12-16T14:38:25;2.76;84.11
68026;SHT31;54819;48.030;14.710;2022-12-16T14:41:13;2.72;84.22
68026;SHT31;54819;48.030;14.710;2022-12-16T14:44:04;2.67;84.38
68026;SHT31;54819;48.030;14.710;2022-12-16T14:47:00;2.64;84.42
68026;SHT31;54819;48.030;14.710;2022-12-16T14:49:47;2.60;84.55
68026;SHT31;54819;48.030;14.710;2022-12-16T14:52:35;2.56;84.66
68026;SHT31;54819;48.030;14.710;2022-12-16T14:55:29;2.54;84.70
68026;SHT31;54819;48.030;14.710;2022-12-16T15:01:10;2.49;84.87
68026;SHT31;54819;48.030;14.710;2022-12-16T15:03:58;2.46;84.90
68026;SHT31;54819;48.030;14.710;2022-12-16T15:06:46;2.43;85.00
68026;SHT31;54819;48.030;14.710;2022-12-16T15:09:52;2.39;85.08
68026;SHT31;54819;48.030;14.710;2022-12-16T15:12:40;2.37;85.18
68026;SHT31;54819;48.030;14.710;2022-12-16T15:15:33;2.38;85.23
68026;SHT31;54819;48.030;14.710;2022-12-16T15:18:26;2.39;85.31
68026;SHT31;54819;48.030;14.710;2022-12-16T15:21:19;2.41;85.43
68026;SHT31;54819;48.030;14.710;2022-12-16T15:24:08;2.44;85.50
68026;SHT31;54819;48.030;14.710;2022-12-16T15:27:12;2.49;85.55
68026;SHT31;54819;48.030;14.710;2022-12-16T15:29:57;2.54;85.59
68026;SHT31;54819;48.030;14.710;2022-12-16T15:32:50;2.58;85.60
68026;SHT31;54819;48.030;14.710;2022-12-16T15:35:59;2.64;85.59
68026;SHT31;54819;48.030;14.710;2022-12-16T15:38:47;2.67;85.61
68026;SHT31;54819;48.030;14.710;2022-12-16T15:41:33;2.69;85.62
68026;SHT31;54819;48.030;14.710;2022-12-16T15:44:25;2.72;85.61
68026;SHT31;54819;48.030;14.710;2022-12-16T15:47:19;2.70;85.62
68026;SHT31;54819;48.030;14.710;2022-12-16T15:50:12;2.75;85.64
68026;SHT31;54819;48.030;14.710;2022-12-16T15:53:15;2.79;85.63
68026;SHT31;54819;48.030;14.710;2022-12-16T15:56:20;2.80;85.60
68026;SHT31;54819;48.030;14.710;2022-12-16T15:59:25;2.82;85.60
68026;SHT31;54819;48.030;14.710;2022-12-16T16:02:25;2.84;85.64
68026;SHT31;54819;48.030;14.710;2022-12-16T16:08:07;2.82;85.52
68026;SHT31;54819;48.030;14.710;2022-12-16T16:10:55;2.78;85.50
68026;SHT31;54819;48.030;14.710;2022-12-16T16:13:41;2.77;85.48
68026;SHT31;54819;48.030;14.710;2022-12-16T16:16:36;2.73;85.40
68026;SHT31;54819;48.030;14.710;2022-12-16T16:19:24;2.68;85.39
68026;SHT31;54819;48.030;14.710;2022-12-16T16:22:11;2.64;85.43
68026;SHT31;54819;48.030;14.710;2022-12-16T16:25:01;2.60;85.40
68026;SHT31;54819;48.030;14.710;2022-12-16T16:27:46;2.55;85.44
68026;SHT31;54819;48.030;14.710;2022-12-16T16:30:32;2.50;85.51
68026;SHT31;54819;48.030;14.710;2022-12-16T16:33:17;2.46;85.60
68026;SHT31;54819;48.030;14.710;2022-12-16T16:36:10;2.42;85.58
68026;SHT31;54819;48.030;14.710;2022-12-16T16:38:58;2.38;85.72
68026;SHT31;54819;48.030;14.710;2022-12-16T16:41:43;2.37;85.85
68026;SHT31;54819;48.030;14.710;2022-12-16T16:44:29;2.32;85.96
68026;SHT31;54819;48.030;14.710;2022-12-16T16:47:15;2.29;86.00
68026;SHT31;54819;48.030;14.710;2022-12-16T16:50:01;2.25;86.05
68026;SHT31;54819;48.030;14.710;2022-12-16T16:52:47;2.24;86.06
68026;SHT31;54819;48.030;14.710;2022-12-16T16:55:32;2.23;86.10
68026;SHT31;54819;48.030;14.710;2022-12-16T16:58:25;2.21;86.09
68026;SHT31;54819;48.030;14.710;2022-12-16T17:01:12;2.19;86.13
68026;SHT31;54819;48.030;14.710;2022-12-16T17:03:59;2.15;86.24
68026;SHT31;54819;48.030;14.710;2022-12-16T17:06:50;2.13;86.27
68026;SHT31;54819;48.030;14.710;2022-12-16T17:09:36;2.12;86.36
68026;SHT31;54819;48.030;14.710;2022-12-16T17:12:22;2.10;86.42
68026;SHT31;54819;48.030;14.710;2022-12-16T17:15:21;2.09;86.47
68026;SHT31;54819;48.030;14.710;2022-12-16T17:18:09;2.07;86.50
68026;SHT31;54819;48.030;14.710;2022-12-16T17:20:55;2.06;86.50
68026;SHT31;54819;48.030;14.710;2022-12-16T17:23:40;2.06;86.52
68026;SHT31;54819;48.030;14.710;2022-12-16T17:26:27;2.05;86.58
68026;SHT31;54819;48.030;14.710;2022-12-16T17:29:22;2.05;86.60
68026;SHT31;54819;48.030;14.710;2022-12-16T17:32:10;2.04;86.71
68026;SHT31;54819;48.030;14.710;2022-12-16T17:34:56;2.04;86.79
68026;SHT31;54819;48.030;14.710;2022-12-16T17:37:42;2.03;86.79
68026;SHT31;54819;48.030;14.710;2022-12-16T17:40:29;2.02;86.82
68026;SHT31;54819;48.030;14.710;2022-12-16T17:43:14;2.04;86.85
68026;SHT31;54819;48.030;14.710;2022-12-16T17:46:01;2.06;87.01
68026;SHT31;54819;48.030;14.710;2022-12-16T17:48:51;2.08;87.14
68026;SHT31;54819;48.030;14.710;2022-12-16T17:51:38;2.10;87.22
68026;SHT31;54819;48.030;14.710;2022-12-16T17:54:24;2.10;87.58
68026;SHT31;54819;48.030;14.710;2022-12-16T17:57:10;2.14;87.45
68026;SHT31;54819;48.030;14.710;2022-12-16T17:59:56;2.21;87.35
68026;SHT31;54819;48.030;14.710;2022-12-16T18:02:42;2.24;87.30
68026;SHT31;54819;48.030;14.710;2022-12-16T18:05:28;2.25;87.33
68026;SHT31;54819;48.030;14.710;2022-12-16T18:08:13;2.27;87.32
68026;SHT31;54819;48.030;14.710;2022-12-16T18:10:58;2.27;87.18
68026;SHT31;54819;48.030;14.710;2022-12-16T18:13:44;2.10;87.28
68026;SHT31;54819;48.030;14.710;2022-12-16T18:16:29;1.89;87.59
68026;SHT31;54819;48.030;14.710;2022-12-16T18:19:15;1.88;87.30
68026;SHT31;54819;48.030;14.710;2022-12-16T18:22:00;1.74;87.68
68026;SHT31;54819;48.030;14.710;2022-12-16T18:24:46;1.66;87.80
68026;SHT31;54819;48.030;14.710;2022-12-16T18:27:32;1.65;87.64
68026;SHT31;54819;48.030;14.710;2022-12-16T18:30:19;1.62;87.55
68026;SHT31;54819;48.030;14.710;2022-12-16T18:33:05;1.58;87.61
68026;SHT31;54819;48.030;14.710;2022-12-16T18:35:51;1.54;87.51
68026;SHT31;54819;48.030;14.710;2022-12-16T18:38:37;1.45;87.50
68026;SHT31;54819;48.030;14.710;2022-12-16T18:41:23;1.35;87.50
68026;SHT31;54819;48.030;14.710;2022-12-16T18:44:09;1.31;87.65
68026;SHT31;54819;48.030;14.710;2022-12-16T18:46:56;1.32;87.54
68026;SHT31;54819;48.030;14.710;2022-12-16T18:49:43;1.33;87.59
68026;SHT31;54819;48.030;14.710;2022-12-16T18:52:28;1.33;87.82
68026;SHT31;54819;48.030;14.710;2022-12-16T18:55:14;1.38;87.75
68026;SHT31;54819;48.030;14.710;2022-12-16T18:57:59;1.40;87.69
68026;SHT31;54819;48.030;14.710;2022-12-16T19:01:05;1.39;87.68
68026;SHT31;54819;48.030;14.710;2022-12-16T19:03:54;1.39;87.60
68026;SHT31;54819;48.030;14.710;2022-12-16T19:06:40;1.42;87.61
68026;SHT31;54819;48.030;14.710;2022-12-16T19:09:26;1.44;87.54
68026;SHT31;54819;48.030;14.710;2022-12-16T19:12:12;1.47;87.50